CheckWX is a tool to help pilots better visualize weather data.  It is not intended as a substitute for an official pre-flight weather briefing.

09:52:15 UTC

LPMR TAF
Monte Real Airport
Portugal
TAF LPMR 200516Z 2006/2106 15005KT 6000 NSC BECMG 2010/2012 22008KT 9999 FEW025 BECMG 2015/2017 30005KT BECMG 2018/2020 13005KT

Feb-20@
06:00 UTC

Feb-20 @ 06:00 UTC

Feb-20@
10:00 UTC

Feb-20 @ 10:00 UTC

TAF LPMR 200516Z 2006/2106 15005KT 6000 NSC
Wind
  • 150° at 5 KTS
Visibility
6,003 meters
Cloud Levels
  • No significant clouds

Feb-20@
10:00 UTC

Feb-20 @ 10:00 UTC

Feb-20@
15:00 UTC

Feb-20 @ 15:00 UTC

BECMG 2010/2012 22008KT 9999 FEW025

Becoming

BecomingConditions expected by Wed, Feb 20, 2019 @ 12:00 UTC

Wind
  • 220° at 8 KTS
Visibility
10,000+ meters
Cloud Levels
  • Few at 2,500' AGL

Feb-20@
15:00 UTC

Feb-20 @ 15:00 UTC

Feb-20@
18:00 UTC

Feb-20 @ 18:00 UTC

BECMG 2015/2017 30005KT

Becoming

BecomingConditions expected by Wed, Feb 20, 2019 @ 17:00 UTC

Wind
  • 300° at 5 KTS
Visibility
10,000+ meters
Cloud Levels
  • Few at 2,500' AGL

Feb-20@
18:00 UTC

Feb-20 @ 18:00 UTC

Feb-21@
06:00 UTC

Feb-21 @ 06:00 UTC

BECMG 2018/2020 13005KT

Becoming

BecomingConditions expected by Wed, Feb 20, 2019 @ 20:00 UTC

Wind
  • 130° at 5 KTS
Visibility
10,000+ meters
Cloud Levels
  • Few at 2,500' AGL